createdAt,value
2018-09-01T00:00:17.314Z,12.90
2018-09-01T00:02:51.925Z,12.90
2018-09-01T00:05:26.482Z,12.90
2018-09-01T00:08:01.087Z,12.90
2018-09-01T00:10:35.904Z,13.00
2018-09-01T00:13:10.670Z,13.00
2018-09-01T00:15:45.321Z,13.00
2018-09-01T00:18:19.849Z,13.00
2018-09-01T00:20:54.692Z,12.90
2018-09-01T00:23:29.312Z,12.90
2018-09-01T00:26:04.003Z,12.80
2018-09-01T00:28:38.682Z,12.80
2018-09-01T00:31:13.405Z,12.80
2018-09-01T00:33:48.142Z,12.90
2018-09-01T00:36:23.079Z,12.80
2018-09-01T00:39:08.357Z,12.80
2018-09-01T00:41:43.062Z,12.80
2018-09-01T00:44:17.677Z,12.80
2018-09-01T00:46:52.232Z,12.90
2018-09-01T00:49:26.738Z,12.90
2018-09-01T00:52:01.579Z,12.90
2018-09-01T00:54:36.175Z,12.90
2018-09-01T00:57:10.845Z,12.90
2018-09-01T00:59:45.419Z,12.90
2018-09-01T01:02:20.481Z,12.90
2018-09-01T01:04:55.196Z,12.90
2018-09-01T01:07:29.918Z,13.00
2018-09-01T01:10:04.805Z,13.00
2018-09-01T01:12:39.605Z,13.00
2018-09-01T01:15:14.498Z,13.00
2018-09-01T01:17:49.249Z,13.00
2018-09-01T01:20:23.809Z,13.00
2018-09-01T01:22:58.519Z,13.10
2018-09-01T01:25:33.074Z,13.00
2018-09-01T01:28:08.058Z,13.10
2018-09-01T01:30:42.750Z,13.10
2018-09-01T01:33:17.582Z,13.00
2018-09-01T01:35:52.238Z,13.00
2018-09-01T01:38:27.093Z,13.00
2018-09-01T01:41:01.706Z,13.00
2018-09-01T01:43:36.721Z,13.00
2018-09-01T01:46:11.199Z,13.00
2018-09-01T01:48:46.120Z,13.00
2018-09-01T01:51:20.968Z,13.00
2018-09-01T01:53:55.518Z,13.00
2018-09-01T01:56:30.183Z,13.00
2018-09-01T01:59:05.563Z,13.00
2018-09-01T02:01:40.078Z,13.10
2018-09-01T02:04:14.694Z,13.10
2018-09-01T02:06:49.430Z,13.10
2018-09-01T02:09:24.363Z,13.00
2018-09-01T02:11:58.835Z,13.10
2018-09-01T02:14:33.569Z,13.10
2018-09-01T02:17:08.261Z,13.10
2018-09-01T02:19:42.902Z,13.10
2018-09-01T02:22:17.421Z,13.10
2018-09-01T02:24:52.010Z,13.10
2018-09-01T02:27:26.890Z,13.10
2018-09-01T02:30:01.513Z,13.20
2018-09-01T02:32:36.219Z,13.20
2018-09-01T02:35:10.746Z,13.30
2018-09-01T02:37:45.578Z,13.30
2018-09-01T02:40:20.114Z,13.30
2018-09-01T02:42:54.726Z,13.30
2018-09-01T02:45:29.316Z,13.20
2018-09-01T02:48:03.916Z,13.20
2018-09-01T02:50:38.774Z,13.20
2018-09-01T02:53:13.334Z,13.20
2018-09-01T02:55:47.910Z,13.20
2018-09-01T02:58:22.446Z,13.20
2018-09-01T03:01:02.543Z,13.20
2018-09-01T03:03:37.387Z,13.20
2018-09-01T03:06:12.043Z,13.20
2018-09-01T03:08:46.729Z,13.10
2018-09-01T03:11:21.350Z,13.00
2018-09-01T03:13:56.079Z,13.00
2018-09-01T03:16:30.562Z,13.00
2018-09-01T03:19:05.723Z,12.90
2018-09-01T03:21:40.478Z,12.90
2018-09-01T03:24:15.458Z,12.90
2018-09-01T03:26:50.055Z,12.90
2018-09-01T03:29:24.590Z,13.00
2018-09-01T03:31:59.171Z,13.00
2018-09-01T03:34:33.733Z,13.00
2018-09-01T03:37:08.729Z,12.90
2018-09-01T03:39:43.318Z,12.90
2018-09-01T03:42:18.029Z,12.80
2018-09-01T03:44:52.838Z,12.90
2018-09-01T03:47:21.866Z,12.90
2018-09-01T03:49:50.974Z,12.90
2018-09-01T03:52:20.016Z,12.80
2018-09-01T03:54:49.052Z,12.80
2018-09-01T03:57:18.330Z,12.90
2018-09-01T03:59:47.404Z,12.80
2018-09-01T04:02:16.517Z,12.80
2018-09-01T04:04:46.134Z,12.80
2018-09-01T04:07:15.255Z,12.80
2018-09-01T04:09:44.338Z,12.70
2018-09-01T04:12:13.402Z,12.70
2018-09-01T04:14:42.484Z,12.70
2018-09-01T04:17:11.552Z,12.70
2018-09-01T04:19:40.622Z,12.70
2018-09-01T04:22:09.639Z,12.70
2018-09-01T04:24:38.698Z,12.70
2018-09-01T04:27:07.729Z,12.70
2018-09-01T04:29:36.746Z,12.70
2018-09-01T04:32:05.917Z,12.70
2018-09-01T04:34:34.879Z,12.70
2018-09-01T04:37:03.918Z,12.80
2018-09-01T04:39:33.152Z,12.80
2018-09-01T04:42:02.206Z,12.70
2018-09-01T04:44:31.225Z,12.80
2018-09-01T04:47:00.324Z,12.90
2018-09-01T04:49:29.401Z,12.90
2018-09-01T04:51:58.427Z,12.90
2018-09-01T04:54:27.511Z,12.90
2018-09-01T04:56:56.530Z,12.90
2018-09-01T04:59:25.538Z,12.90
2018-09-01T05:01:54.600Z,12.90
2018-09-01T05:04:23.616Z,12.90
2018-09-01T05:06:52.698Z,12.90
2018-09-01T05:09:21.778Z,12.90
2018-09-01T05:11:50.790Z,12.90
2018-09-01T05:14:19.820Z,13.00
2018-09-01T05:16:48.964Z,13.00
2018-09-01T05:19:17.997Z,13.00
2018-09-01T05:21:47.138Z,13.00
2018-09-01T05:24:16.131Z,13.10
2018-09-01T05:26:45.209Z,13.20
2018-09-01T05:29:14.228Z,13.20
2018-09-01T05:31:43.246Z,13.20
2018-09-01T05:34:12.305Z,13.20
2018-09-01T05:36:41.425Z,13.20
2018-09-01T05:39:10.442Z,13.10
2018-09-01T05:41:39.470Z,13.10
2018-09-01T05:44:08.535Z,13.10
2018-09-01T05:46:37.568Z,13.20
2018-09-01T05:49:06.579Z,13.20
2018-09-01T05:51:35.630Z,13.20
2018-09-01T05:54:04.712Z,13.30
2018-09-01T05:56:33.755Z,13.30
2018-09-01T05:59:02.809Z,13.30
2018-09-01T06:01:31.867Z,13.40
2018-09-01T06:04:00.929Z,13.40
2018-09-01T06:06:30.324Z,13.40
2018-09-01T06:08:59.295Z,13.50
2018-09-01T06:11:28.333Z,13.50
2018-09-01T06:13:57.377Z,13.40
2018-09-01T06:16:26.374Z,13.40
2018-09-01T06:18:55.430Z,13.40
2018-09-01T06:21:24.455Z,13.40
2018-09-01T06:23:53.592Z,13.50
2018-09-01T06:26:22.571Z,13.60
2018-09-01T06:28:59.689Z,13.70
2018-09-01T06:31:28.764Z,13.80
2018-09-01T06:33:57.818Z,13.80
2018-09-01T06:36:26.874Z,13.80
2018-09-01T06:38:55.959Z,13.90
2018-09-01T06:41:24.995Z,13.80
2018-09-01T06:43:54.174Z,14.10
2018-09-01T06:46:23.239Z,14.00
2018-09-01T06:48:52.385Z,14.10
2018-09-01T06:51:21.443Z,14.20
2018-09-01T06:53:50.833Z,14.30
2018-09-01T06:56:19.932Z,14.50
2018-09-01T06:58:49.326Z,14.40
2018-09-01T07:01:18.402Z,14.60
2018-09-01T07:03:47.410Z,14.70
2018-09-01T07:06:16.511Z,14.80
2018-09-01T07:08:45.616Z,15.00
2018-09-01T07:11:15.011Z,15.00
2018-09-01T07:13:44.107Z,14.90
2018-09-01T07:16:13.158Z,15.10
2018-09-01T07:18:42.213Z,15.20
2018-09-01T07:21:11.239Z,15.30
2018-09-01T07:23:40.252Z,15.20
2018-09-01T07:26:09.317Z,15.10
2018-09-01T07:28:38.313Z,15.20
2018-09-01T07:31:07.732Z,15.50
2018-09-01T07:33:36.474Z,15.50
2018-09-01T07:36:06.730Z,15.60
2018-09-01T07:38:35.803Z,15.70
2018-09-01T07:41:05.099Z,15.90
2018-09-01T07:43:34.148Z,16.00
2018-09-01T07:46:03.172Z,16.10
2018-09-01T07:48:32.641Z,16.40
2018-09-01T07:51:01.910Z,16.50
2018-09-01T07:53:30.914Z,16.80
2018-09-01T07:56:00.025Z,16.90
2018-09-01T07:58:29.046Z,17.00
2018-09-01T08:00:58.130Z,17.00
2018-09-01T08:03:27.156Z,17.60
2018-09-01T08:05:56.172Z,17.70
2018-09-01T08:08:25.230Z,17.70
2018-09-01T08:10:54.307Z,17.70
2018-09-01T08:13:23.351Z,17.60
2018-09-01T08:15:52.415Z,17.40
2018-09-01T08:18:21.499Z,17.80
2018-09-01T08:20:50.570Z,18.40
2018-09-01T08:23:20.570Z,18.80
2018-09-01T08:25:49.694Z,19.30
2018-09-01T08:28:18.837Z,19.00
2018-09-01T08:30:47.902Z,18.90
2018-09-01T08:33:16.925Z,19.20
2018-09-01T08:35:45.983Z,18.90
2018-09-01T08:38:15.766Z,18.50
2018-09-01T08:40:44.814Z,18.30
2018-09-01T08:43:13.903Z,18.20
2018-09-01T08:45:42.969Z,18.10
2018-09-01T08:48:12.156Z,18.00
2018-09-01T08:50:41.202Z,18.50
2018-09-01T08:53:10.323Z,18.70
2018-09-01T08:55:39.488Z,19.00
2018-09-01T08:58:08.552Z,19.30
2018-09-01T09:00:37.674Z,19.20
2018-09-01T09:03:07.050Z,19.70
2018-09-01T09:05:36.153Z,21.30
2018-09-01T09:08:05.287Z,23.00
2018-09-01T09:10:34.371Z,23.00
2018-09-01T09:13:03.414Z,23.60
2018-09-01T09:15:32.527Z,23.60
2018-09-01T09:18:01.643Z,23.00
2018-09-01T09:20:30.670Z,21.30
2018-09-01T09:22:59.971Z,20.30
2018-09-01T09:25:29.106Z,19.40
2018-09-01T09:27:58.812Z,18.90
2018-09-01T09:30:27.954Z,18.80
2018-09-01T09:32:57.017Z,18.80
2018-09-01T09:35:26.045Z,18.50
2018-09-01T09:37:55.293Z,19.40
2018-09-01T09:40:24.321Z,19.90
2018-09-01T09:42:53.377Z,20.70
2018-09-01T09:45:23.196Z,21.20
2018-09-01T09:47:52.286Z,21.50
2018-09-01T09:50:21.490Z,22.20
2018-09-01T09:52:50.654Z,21.90
2018-09-01T09:55:19.644Z,22.10
2018-09-01T09:57:48.684Z,22.00
2018-09-01T10:00:22.215Z,21.50
2018-09-01T10:02:51.217Z,21.60
2018-09-01T10:05:20.268Z,21.00
2018-09-01T10:07:49.654Z,20.20
2018-09-01T10:10:18.684Z,19.70
2018-09-01T10:12:47.710Z,19.20
2018-09-01T10:15:16.783Z,19.20
2018-09-01T10:17:45.802Z,19.10
2018-09-01T10:20:15.135Z,18.80
2018-09-01T10:22:44.204Z,18.70
2018-09-01T10:25:13.646Z,18.80
2018-09-01T10:27:42.698Z,18.70
2018-09-01T10:30:11.798Z,18.60
2018-09-01T10:32:40.895Z,19.20
2018-09-01T10:35:10.624Z,20.40
2018-09-01T10:37:39.643Z,21.30
2018-09-01T10:40:08.734Z,21.00
2018-09-01T10:42:38.122Z,20.80
2018-09-01T10:45:07.218Z,21.10
2018-09-01T10:47:36.271Z,20.80
2018-09-01T10:50:05.710Z,20.70
2018-09-01T10:52:34.755Z,20.40
2018-09-01T10:55:03.871Z,20.70
2018-09-01T10:57:32.965Z,20.40
2018-09-01T11:00:02.015Z,20.30
2018-09-01T11:02:31.030Z,21.00
2018-09-01T11:05:00.091Z,22.70
2018-09-01T11:07:29.182Z,22.60
2018-09-01T11:09:58.234Z,22.70
2018-09-01T11:12:27.244Z,23.70
2018-09-01T11:14:56.310Z,23.80
2018-09-01T11:17:25.394Z,25.20
2018-09-01T11:19:54.473Z,26.10
2018-09-01T11:22:23.554Z,25.50
2018-09-01T11:24:52.605Z,24.80
2018-09-01T11:27:21.630Z,24.50
2018-09-01T11:29:50.650Z,24.10
2018-09-01T11:32:19.681Z,23.00
2018-09-01T11:34:48.711Z,22.40
2018-09-01T11:37:17.787Z,22.00
2018-09-01T11:39:46.978Z,21.70
2018-09-01T11:42:16.070Z,21.70
2018-09-01T11:44:45.106Z,21.90
2018-09-01T11:47:14.130Z,21.60
2018-09-01T11:49:43.202Z,21.70
2018-09-01T11:52:12.742Z,22.30
2018-09-01T11:54:41.801Z,22.40
2018-09-01T11:57:10.832Z,22.40
2018-09-01T11:59:39.904Z,22.20
2018-09-01T12:02:09.034Z,22.00
2018-09-01T12:04:38.150Z,21.90
2018-09-01T12:07:07.235Z,21.70
2018-09-01T12:09:36.267Z,21.00
2018-09-01T12:12:05.768Z,20.30
2018-09-01T12:14:34.807Z,19.90
2018-09-01T12:17:03.839Z,19.70
2018-09-01T12:19:34.151Z,19.40
2018-09-01T12:22:03.339Z,19.20
2018-09-01T12:24:32.374Z,19.60
2018-09-01T12:27:01.418Z,19.40
2018-09-01T12:29:30.858Z,19.20
2018-09-01T12:31:59.866Z,19.10
2018-09-01T12:34:28.906Z,19.10
2018-09-01T12:36:58.373Z,20.00
2018-09-01T12:39:27.430Z,20.30
2018-09-01T12:41:56.502Z,20.30
2018-09-01T12:44:25.590Z,20.00
2018-09-01T12:46:54.675Z,20.40
2018-09-01T12:49:23.807Z,20.30
2018-09-01T12:51:53.220Z,20.50
2018-09-01T12:54:22.336Z,20.70
2018-09-01T12:56:51.387Z,20.90
2018-09-01T12:59:20.479Z,21.30
2018-09-01T13:01:49.739Z,20.90
2018-09-01T13:04:18.767Z,21.20
2018-09-01T13:06:47.816Z,21.80
2018-09-01T13:09:16.908Z,21.60
2018-09-01T13:11:46.207Z,21.30
2018-09-01T13:14:15.215Z,21.50
2018-09-01T13:16:44.239Z,21.60
2018-09-01T13:19:13.327Z,21.50
2018-09-01T13:21:42.356Z,21.10
2018-09-01T13:24:12.489Z,21.10
2018-09-01T13:26:41.529Z,20.80
2018-09-01T13:29:11.342Z,20.80
2018-09-01T13:31:40.506Z,20.80
2018-09-01T13:34:10.379Z,20.80
2018-09-01T13:36:39.501Z,21.00
2018-09-01T13:39:08.515Z,20.80
2018-09-01T13:41:37.518Z,21.20
2018-09-01T13:44:06.589Z,21.10
2018-09-01T13:46:35.610Z,21.10
2018-09-01T13:49:04.731Z,21.10
2018-09-01T13:51:33.751Z,21.00
2018-09-01T13:54:02.853Z,21.20
2018-09-01T13:56:31.934Z,21.30
2018-09-01T13:59:00.987Z,21.30
2018-09-01T14:01:30.086Z,21.30
2018-09-01T14:03:59.125Z,21.20
2018-09-01T14:06:28.516Z,21.30
2018-09-01T14:08:57.610Z,21.40
2018-09-01T14:11:26.681Z,21.60
2018-09-01T14:13:55.774Z,21.60
2018-09-01T14:16:24.835Z,21.70
2018-09-01T14:18:54.121Z,21.20
2018-09-01T14:21:23.186Z,21.30
2018-09-01T14:23:52.240Z,21.00
2018-09-01T14:26:21.306Z,21.00
2018-09-01T14:28:50.431Z,21.10
2018-09-01T14:31:19.493Z,20.60
2018-09-01T14:33:48.509Z,19.90
2018-09-01T14:36:17.675Z,20.10
2018-09-01T14:38:46.884Z,19.90
2018-09-01T14:41:15.893Z,20.00
2018-09-01T14:43:44.954Z,19.60
2018-09-01T14:46:15.043Z,19.40
2018-09-01T14:48:44.138Z,19.30
2018-09-01T14:51:13.207Z,19.60
2018-09-01T14:53:42.258Z,19.50
2018-09-01T14:56:11.327Z,19.60
2018-09-01T14:58:40.390Z,19.70
2018-09-01T15:01:10.023Z,19.80
2018-09-01T15:03:39.018Z,20.00
2018-09-01T15:06:08.103Z,19.90
2018-09-01T15:08:38.274Z,19.70
2018-09-01T15:11:08.066Z,19.90
2018-09-01T15:13:37.121Z,19.90
2018-09-01T15:16:06.269Z,19.70
2018-09-01T15:18:35.343Z,19.80
2018-09-01T15:21:04.474Z,20.00
2018-09-01T15:23:33.569Z,20.00
2018-09-01T15:26:02.635Z,20.30
2018-09-01T15:28:31.681Z,20.70
2018-09-01T15:31:00.754Z,20.70
2018-09-01T15:33:29.803Z,20.90
2018-09-01T15:35:59.173Z,20.50
2018-09-01T15:38:28.247Z,20.40
2018-09-01T15:40:57.266Z,20.20
2018-09-01T15:43:26.328Z,20.00
2018-09-01T15:45:55.399Z,19.90
2018-09-01T15:48:24.454Z,19.90
2018-09-01T15:50:53.570Z,20.10
2018-09-01T15:53:22.578Z,20.10
2018-09-01T15:55:51.607Z,20.20
2018-09-01T15:58:20.670Z,20.10
2018-09-01T16:00:49.679Z,20.10
2018-09-01T16:03:21.965Z,20.20
2018-09-01T16:05:51.138Z,20.10
2018-09-01T16:08:20.388Z,20.10
2018-09-01T16:10:49.479Z,20.10
2018-09-01T16:13:18.562Z,20.00
2018-09-01T16:15:47.679Z,20.10
2018-09-01T16:18:16.749Z,20.10
2018-09-01T16:20:45.759Z,20.20
2018-09-01T16:23:14.803Z,20.20
2018-09-01T16:25:43.853Z,20.40
2018-09-01T16:28:12.918Z,20.50
2018-09-01T16:30:41.958Z,20.60
2018-09-01T16:33:10.989Z,20.50
2018-09-01T16:35:40.042Z,20.70
2018-09-01T16:38:09.107Z,20.50
2018-09-01T16:40:38.110Z,20.20
2018-09-01T16:43:07.163Z,20.10
2018-09-01T16:45:36.160Z,19.70
2018-09-01T16:48:05.255Z,19.70
2018-09-01T16:50:34.360Z,19.70
2018-09-01T16:53:03.714Z,19.70
2018-09-01T16:55:33.016Z,19.60
2018-09-01T16:58:02.044Z,19.60
2018-09-01T17:00:31.403Z,19.70
2018-09-01T17:03:00.393Z,19.50
2018-09-01T17:05:29.431Z,19.70
2018-09-01T17:07:58.526Z,19.60
2018-09-01T17:10:27.587Z,19.70
2018-09-01T17:12:56.653Z,19.70
2018-09-01T17:15:25.711Z,19.50
2018-09-01T17:17:55.322Z,19.30
2018-09-01T17:20:24.370Z,19.20
2018-09-01T17:22:53.415Z,19.00
2018-09-01T17:25:22.475Z,19.00
2018-09-01T17:27:52.106Z,19.10
2018-09-01T17:30:21.542Z,18.90
2018-09-01T17:32:50.576Z,18.80
2018-09-01T17:35:20.227Z,18.70
2018-09-01T17:37:49.329Z,18.70
2018-09-01T17:40:18.329Z,18.70
2018-09-01T17:42:48.512Z,18.60
2018-09-01T17:45:17.605Z,18.50
2018-09-01T17:47:46.610Z,18.50
2018-09-01T17:50:15.690Z,18.40
2018-09-01T17:52:44.719Z,18.30
2018-09-01T17:55:13.837Z,18.20
2018-09-01T17:57:42.853Z,18.20
2018-09-01T18:00:11.917Z,18.20
2018-09-01T18:02:40.990Z,18.00
2018-09-01T18:05:10.511Z,18.00
2018-09-01T18:07:39.517Z,18.00
2018-09-01T18:10:08.582Z,18.00
2018-09-01T18:12:37.635Z,17.90
2018-09-01T18:15:06.706Z,17.90
2018-09-01T18:17:35.840Z,17.90
2018-09-01T18:20:05.259Z,17.70
2018-09-01T18:22:34.320Z,17.60
2018-09-01T18:25:03.693Z,17.40
2018-09-01T18:27:32.683Z,17.40
2018-09-01T18:30:01.750Z,17.40
2018-09-01T18:32:30.801Z,17.40
2018-09-01T18:34:59.966Z,17.30
2018-09-01T18:37:29.036Z,17.30
2018-09-01T18:39:58.097Z,17.20
2018-09-01T18:42:27.222Z,17.20
2018-09-01T18:44:56.283Z,17.10
2018-09-01T18:47:25.391Z,17.00
2018-09-01T18:49:54.453Z,16.80
2018-09-01T18:52:23.826Z,16.70
2018-09-01T18:54:52.837Z,16.80
2018-09-01T18:57:21.886Z,16.90
2018-09-01T18:59:50.973Z,17.00
2018-09-01T19:02:20.032Z,16.80
2018-09-01T19:04:49.171Z,16.70
2018-09-01T19:07:18.857Z,16.60
2018-09-01T19:09:48.676Z,16.60
2018-09-01T19:12:17.760Z,16.60
2018-09-01T19:14:46.819Z,16.70
2018-09-01T19:17:15.860Z,16.70
2018-09-01T19:19:44.900Z,16.70
2018-09-01T19:22:13.983Z,16.70
2018-09-01T19:24:43.298Z,16.60
2018-09-01T19:27:12.308Z,16.50
2018-09-01T19:29:41.302Z,16.50
2018-09-01T19:32:10.333Z,16.40
2018-09-01T19:34:39.449Z,16.30
2018-09-01T19:37:08.645Z,16.30
2018-09-01T19:39:37.674Z,16.20
2018-09-01T19:42:06.738Z,16.20
2018-09-01T19:44:35.892Z,16.20
2018-09-01T19:47:05.265Z,16.10
2018-09-01T19:49:34.303Z,16.10
2018-09-01T19:52:03.294Z,16.00
2018-09-01T19:54:32.311Z,16.00
2018-09-01T19:57:01.612Z,16.00
2018-09-01T19:59:30.711Z,16.00
2018-09-01T20:01:59.713Z,15.80
2018-09-01T20:04:28.829Z,15.80
2018-09-01T20:06:58.545Z,15.90
2018-09-01T20:09:28.193Z,15.80
2018-09-01T20:11:57.231Z,15.80
2018-09-01T20:14:26.310Z,15.70
2018-09-01T20:16:55.312Z,15.70
2018-09-01T20:19:24.630Z,15.60
2018-09-01T20:21:54.152Z,15.60
2018-09-01T20:24:23.168Z,15.60
2018-09-01T20:26:52.210Z,15.50
2018-09-01T20:29:21.312Z,15.50
2018-09-01T20:31:50.403Z,15.50
2018-09-01T20:34:19.374Z,15.50
2018-09-01T20:36:48.397Z,15.60
2018-09-01T20:39:17.471Z,15.60
2018-09-01T20:41:46.494Z,15.50
2018-09-01T20:44:15.482Z,15.40
2018-09-01T20:46:44.610Z,15.40
2018-09-01T20:49:13.618Z,15.40
2018-09-01T20:51:42.647Z,15.40
2018-09-01T20:54:11.746Z,15.40
2018-09-01T20:56:40.807Z,15.40
2018-09-01T20:59:10.023Z,15.30
2018-09-01T21:01:39.078Z,15.30
2018-09-01T21:04:08.167Z,15.30
2018-09-01T21:06:37.155Z,15.30
2018-09-01T21:09:11.779Z,15.30
2018-09-01T21:11:46.495Z,15.30
2018-09-01T21:14:21.030Z,15.30
2018-09-01T21:16:55.661Z,15.20
2018-09-01T21:19:30.398Z,15.20
2018-09-01T21:22:05.142Z,15.20
2018-09-01T21:24:39.862Z,15.20
2018-09-01T21:27:14.459Z,15.20
2018-09-01T21:29:49.370Z,15.30
2018-09-01T21:32:23.986Z,15.30
2018-09-01T21:34:58.753Z,15.30
2018-09-01T21:37:33.311Z,15.20
2018-09-01T21:40:07.942Z,15.20
2018-09-01T21:42:42.641Z,15.20
2018-09-01T21:45:17.241Z,15.20
2018-09-01T21:47:51.990Z,15.20
2018-09-01T21:50:26.750Z,15.10
2018-09-01T21:53:01.306Z,15.10
2018-09-01T21:55:35.998Z,14.90
2018-09-01T22:00:51.122Z,14.70
2018-09-01T22:03:25.791Z,14.60
2018-09-01T22:06:00.981Z,14.60
2018-09-01T22:08:35.488Z,14.50
2018-09-01T22:11:10.214Z,14.30
2018-09-01T22:13:44.739Z,14.20
2018-09-01T22:16:19.555Z,14.20
2018-09-01T22:18:54.106Z,14.10
2018-09-01T22:21:28.755Z,14.00
2018-09-01T22:24:03.355Z,14.00
2018-09-01T22:26:38.054Z,14.00
2018-09-01T22:29:12.707Z,14.00
2018-09-01T22:31:47.453Z,14.00
2018-09-01T22:34:22.019Z,14.00
2018-09-01T22:36:56.992Z,14.00
2018-09-01T22:39:31.485Z,14.00
2018-09-01T22:42:06.384Z,13.90
2018-09-01T22:44:41.046Z,13.90
2018-09-01T22:47:21.171Z,13.90
2018-09-01T22:49:56.051Z,13.90
2018-09-01T22:52:30.569Z,13.80
2018-09-01T22:55:05.197Z,13.90
2018-09-01T22:57:39.862Z,13.90
2018-09-01T23:00:14.346Z,13.80
2018-09-01T23:02:48.943Z,13.80
2018-09-01T23:05:23.642Z,13.80
2018-09-01T23:07:58.347Z,13.80
2018-09-01T23:10:33.093Z,13.80
2018-09-01T23:13:07.557Z,13.80
2018-09-01T23:15:42.323Z,13.80
2018-09-01T23:18:16.969Z,13.80
2018-09-01T23:20:51.624Z,13.60
2018-09-01T23:23:26.168Z,13.60
2018-09-01T23:26:01.206Z,13.60
2018-09-01T23:28:36.180Z,13.50
2018-09-01T23:31:11.025Z,13.40
2018-09-01T23:33:45.656Z,13.30
2018-09-01T23:36:20.387Z,13.30
2018-09-01T23:38:54.926Z,13.30
2018-09-01T23:41:29.510Z,13.30
2018-09-01T23:44:04.034Z,13.20
2018-09-01T23:46:38.975Z,13.20
2018-09-01T23:49:13.635Z,13.10
2018-09-01T23:51:48.363Z,13.10
2018-09-01T23:54:23.008Z,13.10
2018-09-01T23:56:57.659Z,13.10
2018-09-01T23:59:32.255Z,13.10
